Time;durP1;ratioP1;P1;durP2;ratioP2;P2;SDS_P1;SDS_P2;PMS_P1;PMS_P2;Temp;Humidity;BMP_temperature;BMP_pressure;BME280_temperature;BME280_humidity;BME280_pressure;Samples;Min_cycle;Max_cycle;Signal;HPM_P1;HPM_P2
2023/12/04 00:02:20;;;;;;;;;;;;;;;-1.34;100.00;101243.44;5064831;28;20377;-75
2023/12/04 00:04:45;;;;;;;;;;;;;;;-1.25;100.00;101246.41;5043001;28;19932;-75
2023/12/04 00:07:11;;;;;;;;;;;;;;;-1.26;100.00;101247.25;5052736;28;20431;-73
2023/12/04 00:09:36;;;;;;;;;;;;;;;-1.36;100.00;101234.81;5062756;28;19916;-75
2023/12/04 00:12:01;;;;;;;;;;;;;;;-1.29;100.00;101226.53;5065835;28;19923;-75
2023/12/04 00:14:27;;;;;;;;;;;;;;;-1.28;100.00;101233.41;5065163;28;19925;-74
2023/12/04 00:16:52;;;;;;;;;;;;;;;-1.12;100.00;101235.84;5041909;28;19921;-75
2023/12/04 00:19:17;;;;;;;;;;;;;;;-1.36;100.00;101227.09;5051340;28;19982;-73
2023/12/04 00:21:42;;;;;;;;;;;;;;;-1.25;100.00;101233.53;5044025;28;19939;-75
2023/12/04 00:24:08;;;;;;;;;;;;;;;-1.20;100.00;101224.34;5066982;28;19970;-73
2023/12/04 00:26:33;;;;;;;;;;;;;;;-1.26;100.00;101226.66;5050421;28;19952;-75
2023/12/04 00:28:59;;;;;;;;;;;;;;;-1.27;100.00;101225.75;5069219;28;20014;-74
2023/12/04 00:31:24;;;;;;;;;;;;;;;-1.16;100.00;101218.53;5054100;28;19923;-74
2023/12/04 00:33:50;;;;;;;;;;;;;;;-1.23;100.00;101226.78;5065132;28;19924;-74
2023/12/04 00:36:15;;;;;;;;;;;;;;;-1.27;100.00;101230.91;5069344;28;20378;-74
2023/12/04 00:38:40;;;;;;;;;;;;;;;-1.24;100.00;101215.59;5038829;28;19924;-74
2023/12/04 00:41:06;;;;;;;;;;;;;;;-1.20;100.00;101205.47;5063135;28;19933;-73
2023/12/04 00:43:31;;;;;;;;;;;;;;;-1.23;100.00;101206.22;5056241;28;19951;-74
2023/12/04 00:45:57;;;;;;;;;;;;;;;-1.13;100.00;101197.19;5040442;28;20019;-75
2023/12/04 00:50:50;;;;;;;;;;;;;;;-1.21;100.00;101204.56;5105136;22;19932;-73
2023/12/04 00:58:27;;;;;;;;;;;;;;;-1.17;100.00;101200.47;5255017;22;19954;-73
2023/12/04 01:00:53;;;;;;;;;;;;;;;-1.12;100.00;101186.97;5098018;22;20448;-73
2023/12/04 01:44:44;;;;;;;;;;;;;;;-1.10;100.00;101148.47;3237558;22;19932;-73
2023/12/04 01:47:10;;;;;;;;;;;;;;;-1.18;100.00;101148.13;5090808;28;19935;-71
2023/12/04 01:49:35;;;;;;;;;;;;;;;-1.01;100.00;101150.53;5056642;28;20385;-71
2023/12/04 01:52:04;;;;;;;;;;;;;;;-1.05;100.00;101142.69;5045572;28;19967;-73
2023/12/04 01:54:30;;;;;;;;;;;;;;;-1.15;100.00;101152.53;5073429;28;19923;-73
2023/12/04 01:56:55;;;;;;;;;;;;;;;-1.11;100.00;101138.97;5055558;28;20372;-72
2023/12/04 01:59:21;;;;;;;;;;;;;;;-1.05;100.00;101147.81;5056881;28;19931;-74
2023/12/04 02:01:46;;;;;;;;;;;;;;;-1.10;100.00;101136.47;5055628;28;19924;-71
2023/12/04 02:04:12;;;;;;;;;;;;;;;-1.07;100.00;101131.44;5056462;28;20439;-71
2023/12/04 02:06:37;;;;;;;;;;;;;;;-1.05;100.00;101139.22;5055142;28;20301;-71
2023/12/04 02:09:03;;;;;;;;;;;;;;;-1.16;100.00;101125.06;5056671;28;19924;-74
2023/12/04 02:11:28;;;;;;;;;;;;;;;-1.02;100.00;101117.88;5071238;28;20373;-73
2023/12/04 02:13:54;;;;;;;;;;;;;;;-1.04;100.00;101120.41;5091067;28;19916;-71
2023/12/04 02:16:19;;;;;;;;;;;;;;;-1.12;100.00;101114.06;5086559;28;20002;-71
2023/12/04 02:18:45;;;;;;;;;;;;;;;-1.17;100.00;101106.16;5073699;28;19916;-71
2023/12/04 02:21:11;;;;;;;;;;;;;;;-1.16;100.00;101114.78;5042212;28;19928;-71
2023/12/04 02:23:36;;;;;;;;;;;;;;;-1.23;100.00;101113.66;5067782;28;19916;-73
2023/12/04 02:26:15;;;;;;;;;;;;;;;-1.17;100.00;101098.47;5073121;28;19992;-71
2023/12/04 02:28:42;;;;;;;;;;;;;;;-1.05;100.00;101098.97;5066991;28;20007;-72
2023/12/04 02:31:09;;;;;;;;;;;;;;;-1.06;100.00;101094.63;5104414;28;19916;-73
2023/12/04 02:33:36;;;;;;;;;;;;;;;-1.08;100.00;101085.97;5082688;28;20281;-71
2023/12/04 02:36:02;;;;;;;;;;;;;;;-1.09;100.00;101089.34;5073394;28;20345;-73
2023/12/04 02:38:27;;;;;;;;;;;;;;;-1.02;100.00;101093.06;5072816;28;19955;-72
2023/12/04 02:40:53;;;;;;;;;;;;;;;-1.07;100.00;101082.56;5062675;28;19947;-73
2023/12/04 02:43:18;;;;;;;;;;;;;;;-1.07;100.00;101067.13;5051352;28;20464;-74
2023/12/04 02:45:43;;;;;;;;;;;;;;;-0.90;100.00;101077.22;5055502;28;19930;-74
2023/12/04 02:48:10;;;;;;;;;;;;;;;-0.99;100.00;101075.16;5056864;28;20007;-71
2023/12/04 02:50:35;;;;;;;;;;;;;;;-1.07;100.00;101072.28;5072025;28;19916;-71
2023/12/04 02:53:00;;;;;;;;;;;;;;;-1.08;100.00;101067.97;5052229;28;20440;-74
2023/12/04 02:55:26;;;;;;;;;;;;;;;-0.98;100.00;101065.75;5055841;28;19920;-71
2023/12/04 02:57:52;;;;;;;;;;;;;;;-1.01;100.00;101058.78;5072600;28;19981;-71
2023/12/04 03:00:17;;;;;;;;;;;;;;;-0.95;100.00;101068.44;5093672;28;19915;-73
2023/12/04 03:02:43;;;;;;;;;;;;;;;-1.13;100.00;101061.75;5058607;28;19924;-74
2023/12/04 03:05:08;;;;;;;;;;;;;;;-1.00;100.00;101057.09;5070115;28;19921;-71
2023/12/04 03:07:34;;;;;;;;;;;;;;;-1.02;100.00;101053.59;5076482;28;19927;-71
2023/12/04 03:09:59;;;;;;;;;;;;;;;-0.96;100.00;101048.66;5060070;28;19927;-73
2023/12/04 03:12:24;;;;;;;;;;;;;;;-0.94;100.00;101045.34;5056111;28;20386;-71
2023/12/04 03:14:49;;;;;;;;;;;;;;;-1.02;100.00;101038.16;5057580;28;20371;-71
2023/12/04 03:17:15;;;;;;;;;;;;;;;-1.08;100.00;101037.09;5063311;28;19924;-72
2023/12/04 03:19:40;;;;;;;;;;;;;;;-1.01;100.00;101038.19;5048478;28;20296;-71
2023/12/04 03:22:05;;;;;;;;;;;;;;;-1.14;100.00;101031.72;5055372;28;19928;-72
2023/12/04 03:24:31;;;;;;;;;;;;;;;-1.07;100.00;101038.84;5056269;28;19928;-71
2023/12/04 03:26:56;;;;;;;;;;;;;;;-0.98;100.00;101033.16;5055175;28;20330;-73
2023/12/04 03:29:22;;;;;;;;;;;;;;;-0.98;100.00;101027.16;5073749;28;19924;-73
2023/12/04 03:31:47;;;;;;;;;;;;;;;-1.01;100.00;101017.63;5049939;28;19921;-71
2023/12/04 03:34:12;;;;;;;;;;;;;;;-1.09;100.00;101009.63;5073628;28;19920;-72
2023/12/04 03:36:37;;;;;;;;;;;;;;;-0.91;100.00;101011.13;5069214;28;20018;-74
2023/12/04 03:39:04;;;;;;;;;;;;;;;-0.93;100.00;101011.09;5064176;28;19955;-73
2023/12/04 03:41:29;;;;;;;;;;;;;;;-1.01;100.00;101001.31;5055263;28;20393;-73
2023/12/04 03:43:54;;;;;;;;;;;;;;;-1.05;100.00;101001.22;5058709;28;19926;-74
2023/12/04 03:46:20;;;;;;;;;;;;;;;-1.02;100.00;100994.41;5074639;28;20050;-72
2023/12/04 03:48:45;;;;;;;;;;;;;;;-1.09;100.00;100981.34;5059517;28;19931;-72
2023/12/04 03:51:10;;;;;;;;;;;;;;;-1.06;100.00;100983.16;5059046;28;19946;-72
2023/12/04 03:53:36;;;;;;;;;;;;;;;-1.18;100.00;100972.38;5058659;28;19924;-72
2023/12/04 03:56:02;;;;;;;;;;;;;;;-0.96;100.00;100980.09;5054118;28;20020;-72
2023/12/04 03:58:27;;;;;;;;;;;;;;;-1.11;100.00;100975.25;5073623;28;20413;-71
2023/12/04 04:00:52;;;;;;;;;;;;;;;-0.84;100.00;100964.22;5072041;28;19978;-72
2023/12/04 04:03:18;;;;;;;;;;;;;;;-0.83;100.00;100955.69;5071113;28;19921;-71
2023/12/04 04:05:43;;;;;;;;;;;;;;;-0.91;100.00;100957.09;5045847;28;19927;-72
2023/12/04 04:08:08;;;;;;;;;;;;;;;-0.92;100.00;100960.50;5049140;28;20010;-73
2023/12/04 04:10:34;;;;;;;;;;;;;;;-0.80;100.00;100960.97;5036549;28;20436;-73
2023/12/04 04:13:00;;;;;;;;;;;;;;;-0.80;100.00;100955.81;5088097;28;19920;-73
2023/12/04 04:15:26;;;;;;;;;;;;;;;-0.80;100.00;100945.50;5068685;28;20293;-71
2023/12/04 04:17:51;;;;;;;;;;;;;;;-0.87;100.00;100943.53;5052710;28;19931;-72
2023/12/04 04:20:17;;;;;;;;;;;;;;;-0.84;100.00;100945.34;5081015;28;19920;-71
2023/12/04 04:22:42;;;;;;;;;;;;;;;-0.88;100.00;100952.06;5055982;28;20278;-71
2023/12/04 04:25:11;;;;;;;;;;;;;;;-0.87;100.00;100939.25;5075373;28;19920;-72
2023/12/04 04:27:36;;;;;;;;;;;;;;;-0.94;100.00;100937.28;5074628;28;19920;-71
2023/12/04 04:30:02;;;;;;;;;;;;;;;-0.83;100.00;100931.66;5051385;28;20408;-72
2023/12/04 04:32:28;;;;;;;;;;;;;;;-0.89;100.00;100932.31;5078992;28;20328;-71
2023/12/04 04:34:53;;;;;;;;;;;;;;;-0.93;100.00;100933.03;5070141;28;19928;-72
2023/12/04 04:37:19;;;;;;;;;;;;;;;-0.91;100.00;100921.97;5068305;28;21505;-72
2023/12/04 04:39:44;;;;;;;;;;;;;;;-0.89;100.00;100924.59;5068009;28;19920;-73
2023/12/04 04:42:10;;;;;;;;;;;;;;;-0.97;100.00;100921.75;5073887;28;19934;-73
2023/12/04 04:44:35;;;;;;;;;;;;;;;-0.86;100.00;100924.72;5075179;28;19924;-73
2023/12/04 04:47:00;;;;;;;;;;;;;;;-0.98;100.00;100919.97;5072208;28;19962;-73
2023/12/04 04:49:26;;;;;;;;;;;;;;;-0.97;100.00;100915.72;5053109;28;20360;-73
2023/12/04 04:51:51;;;;;;;;;;;;;;;-0.96;100.00;100920.03;5054464;28;19959;-73
2023/12/04 04:54:16;;;;;;;;;;;;;;;-0.89;100.00;100911.72;5057436;28;19942;-73
2023/12/04 04:56:42;;;;;;;;;;;;;;;-1.06;100.00;100906.84;5049160;28;19935;-73
2023/12/04 04:59:07;;;;;;;;;;;;;;;-0.89;100.00;100904.91;5052710;28;19951;-73
2023/12/04 05:01:32;;;;;;;;;;;;;;;-0.99;100.00;100907.06;5050401;28;19934;-73
2023/12/04 05:03:59;;;;;;;;;;;;;;;-0.83;100.00;100906.81;5069674;28;19920;-73
2023/12/04 05:06:25;;;;;;;;;;;;;;;-1.03;100.00;100915.50;5064656;28;19916;-73
2023/12/04 05:08:52;;;;;;;;;;;;;;;-0.92;100.00;100906.47;5042731;28;19978;-73
2023/12/04 05:11:17;;;;;;;;;;;;;;;-0.95;100.00;100906.38;5040720;28;19920;-73
2023/12/04 05:13:43;;;;;;;;;;;;;;;-0.84;100.00;100907.63;5072868;28;19916;-73
2023/12/04 05:16:08;;;;;;;;;;;;;;;-0.89;100.00;100909.16;5052914;28;19920;-73
2023/12/04 05:18:33;;;;;;;;;;;;;;;-0.88;100.00;100909.22;5049852;28;20334;-72
2023/12/04 05:20:59;;;;;;;;;;;;;;;-0.85;100.00;100905.88;5042490;28;19931;-73
2023/12/04 05:23:24;;;;;;;;;;;;;;;-0.76;100.00;100908.78;5101106;28;19927;-72
2023/12/04 05:25:49;;;;;;;;;;;;;;;-0.85;100.00;100894.72;5048315;28;19919;-71
2023/12/04 05:28:14;;;;;;;;;;;;;;;-0.90;100.00;100891.97;5043984;28;19966;-72
2023/12/04 05:30:40;;;;;;;;;;;;;;;-0.85;100.00;100890.44;5054963;28;19928;-71
2023/12/04 05:33:05;;;;;;;;;;;;;;;-0.73;100.00;100885.72;5044062;28;19968;-70
2023/12/04 05:35:33;;;;;;;;;;;;;;;-0.82;100.00;100880.28;5051595;28;20500;-71
2023/12/04 05:37:59;;;;;;;;;;;;;;;-0.91;100.00;100874.78;5040875;28;19971;-72
2023/12/04 05:40:24;;;;;;;;;;;;;;;-0.87;100.00;100871.50;5055403;28;19916;-71
2023/12/04 05:42:50;;;;;;;;;;;;;;;-0.94;100.00;100866.97;5064699;28;20400;-72
2023/12/04 05:45:15;;;;;;;;;;;;;;;-0.99;100.00;100871.06;5058175;28;19940;-72
2023/12/04 05:47:40;;;;;;;;;;;;;;;-1.04;100.00;100863.19;5050490;28;19967;-71
2023/12/04 05:50:07;;;;;;;;;;;;;;;-1.05;100.00;100859.75;5032326;28;19932;-72
2023/12/04 05:52:34;;;;;;;;;;;;;;;-0.88;100.00;100869.75;5045568;28;19950;-72
2023/12/04 05:54:59;;;;;;;;;;;;;;;-1.00;100.00;100864.19;5066941;28;19920;-72
2023/12/04 05:57:25;;;;;;;;;;;;;;;-0.86;100.00;100852.69;5052038;28;19927;-73
2023/12/04 05:59:50;;;;;;;;;;;;;;;-0.88;100.00;100864.59;5038236;28;19921;-72
2023/12/04 06:02:15;;;;;;;;;;;;;;;-1.00;100.00;100859.03;5045522;28;19978;-72
2023/12/04 06:04:41;;;;;;;;;;;;;;;-0.80;100.00;100863.19;5051492;28;19985;-72
2023/12/04 06:07:06;;;;;;;;;;;;;;;-0.90;100.00;100861.09;5066092;28;19939;-71
2023/12/04 06:09:32;;;;;;;;;;;;;;;-0.87;100.00;100862.06;5050842;28;19921;-71
2023/12/04 06:11:57;;;;;;;;;;;;;;;-0.86;100.00;100850.09;5049905;28;19935;-72
2023/12/04 06:14:23;;;;;;;;;;;;;;;-0.77;100.00;100846.97;5037486;28;19967;-71
2023/12/04 06:16:48;;;;;;;;;;;;;;;-0.89;100.00;100843.16;5046764;28;20427;-72
2023/12/04 06:19:14;;;;;;;;;;;;;;;-0.94;100.00;100847.25;5057122;28;19952;-72
2023/12/04 06:21:39;;;;;;;;;;;;;;;-0.96;100.00;100842.88;5064353;28;19921;-71
2023/12/04 06:24:05;;;;;;;;;;;;;;;-0.84;100.00;100837.28;5053203;28;19959;-71
2023/12/04 06:26:31;;;;;;;;;;;;;;;-0.84;100.00;100837.28;5030210;28;19932;-71
2023/12/04 06:28:56;;;;;;;;;;;;;;;-0.78;100.00;100825.50;5052117;28;19931;-71
2023/12/04 06:31:22;;;;;;;;;;;;;;;-0.89;100.00;100817.44;5050009;28;19913;-72
2023/12/04 06:33:47;;;;;;;;;;;;;;;-0.78;100.00;100810.06;5044284;28;19933;-71
2023/12/04 06:36:13;;;;;;;;;;;;;;;-0.73;100.00;100810.22;5051664;28;19920;-71
2023/12/04 06:38:39;;;;;;;;;;;;;;;-0.85;100.00;100802.94;5059885;28;19920;-71
2023/12/04 06:41:05;;;;;;;;;;;;;;;-0.94;100.00;100790.66;5047313;28;19989;-71
2023/12/04 06:43:30;;;;;;;;;;;;;;;-0.88;100.00;100796.03;5030078;28;20450;-71
2023/12/04 06:45:58;;;;;;;;;;;;;;;-0.93;100.00;100799.25;5027714;28;19935;-71
2023/12/04 06:48:24;;;;;;;;;;;;;;;-0.99;100.00;100776.78;5029468;28;19920;-71
2023/12/04 06:50:49;;;;;;;;;;;;;;;-0.93;100.00;100788.97;5060406;28;19922;-71
2023/12/04 06:53:14;;;;;;;;;;;;;;;-0.83;100.00;100772.13;5056073;28;19924;-71
2023/12/04 06:55:40;;;;;;;;;;;;;;;-0.98;100.00;100767.34;5045118;28;19925;-71
2023/12/04 06:58:05;;;;;;;;;;;;;;;-0.89;100.00;100771.13;5032335;28;20314;-71
2023/12/04 07:00:30;;;;;;;;;;;;;;;-0.81;100.00;100762.78;5050634;28;19920;-72
2023/12/04 07:02:56;;;;;;;;;;;;;;;-0.89;100.00;100759.94;5041888;28;19916;-72
2023/12/04 07:05:21;;;;;;;;;;;;;;;-0.92;100.00;100759.84;5034246;28;20357;-71
2023/12/04 07:07:47;;;;;;;;;;;;;;;-0.99;100.00;100758.78;5055742;28;20334;-73
2023/12/04 07:10:14;;;;;;;;;;;;;;;-0.97;100.00;100740.81;5043908;28;19931;-70
2023/12/04 07:12:40;;;;;;;;;;;;;;;-0.91;100.00;100743.59;5049392;28;20015;-71
2023/12/04 07:15:06;;;;;;;;;;;;;;;-0.82;100.00;100756.78;5032747;28;20377;-72
2023/12/04 07:17:31;;;;;;;;;;;;;;;-0.66;100.00;100765.88;5030158;28;19931;-72
2023/12/04 07:19:56;;;;;;;;;;;;;;;-0.73;100.00;100767.34;5045610;28;19917;-72
2023/12/04 07:22:22;;;;;;;;;;;;;;;-0.67;100.00;100770.97;5049299;28;19920;-72
2023/12/04 07:24:47;;;;;;;;;;;;;;;-0.63;100.00;100763.38;5049912;28;19952;-71
2023/12/04 07:27:12;;;;;;;;;;;;;;;-0.66;100.00;100773.59;5048670;28;20389;-71
2023/12/04 07:29:38;;;;;;;;;;;;;;;-0.75;100.00;100766.44;5031254;28;19921;-71
2023/12/04 07:32:03;;;;;;;;;;;;;;;-0.56;100.00;100769.59;5049370;28;19917;-70
2023/12/04 07:34:29;;;;;;;;;;;;;;;-0.61;100.00;100773.72;5050066;28;20306;-71
2023/12/04 07:36:54;;;;;;;;;;;;;;;-0.57;100.00;100778.16;5032086;28;19929;-71
2023/12/04 07:39:20;;;;;;;;;;;;;;;-0.56;100.00;100769.59;5049499;28;19995;-70
2023/12/04 07:41:45;;;;;;;;;;;;;;;-0.65;100.00;100765.00;5032539;28;20370;-71
2023/12/04 07:44:11;;;;;;;;;;;;;;;-0.59;100.00;100772.06;5052706;28;19932;-71
2023/12/04 07:46:36;;;;;;;;;;;;;;;-0.65;100.00;100762.44;5054984;28;19925;-72
2023/12/04 07:49:02;;;;;;;;;;;;;;;-0.62;100.00;100767.69;5046584;28;19924;-72
2023/12/04 07:51:27;;;;;;;;;;;;;;;-0.71;100.00;100765.69;5073261;28;19961;-71
2023/12/04 07:53:52;;;;;;;;;;;;;;;-0.58;100.00;100768.69;5089809;28;19919;-71
2023/12/04 07:56:18;;;;;;;;;;;;;;;-0.56;100.00;100762.75;5088853;28;20012;-72
2023/12/04 07:58:43;;;;;;;;;;;;;;;-0.39;100.00;100768.44;5039939;28;19916;-72
2023/12/04 08:01:09;;;;;;;;;;;;;;;-0.36;99.79;100765.06;5056022;28;20041;-72
2023/12/04 08:03:34;;;;;;;;;;;;;;;-0.36;98.64;100767.66;5057444;28;19976;-72
2023/12/04 08:05:59;;;;;;;;;;;;;;;-0.25;97.46;100760.28;5040269;28;20011;-72
2023/12/04 08:08:25;;;;;;;;;;;;;;;-0.36;98.61;100757.34;5055914;28;19920;-72
2023/12/04 08:10:50;;;;;;;;;;;;;;;-0.37;98.53;100753.91;5072724;28;20242;-72
2023/12/04 08:13:16;;;;;;;;;;;;;;;-0.42;99.31;100747.72;5072215;28;19923;-72
2023/12/04 08:15:41;;;;;;;;;;;;;;;-0.30;98.52;100741.22;5060383;28;20297;-72
2023/12/04 08:18:07;;;;;;;;;;;;;;;-0.40;97.43;100742.66;5080506;28;19923;-72
2023/12/04 08:20:32;;;;;;;;;;;;;;;-0.31;97.81;100742.06;5048141;28;20275;-72
2023/12/04 08:22:58;;;;;;;;;;;;;;;-0.36;96.05;100742.78;5039505;28;19916;-72
2023/12/04 08:25:23;;;;;;;;;;;;;;;-0.26;96.91;100743.06;5037335;28;19970;-72
2023/12/04 08:27:49;;;;;;;;;;;;;;;-0.37;97.09;100735.88;5039273;28;20011;-72
2023/12/04 08:30:14;;;;;;;;;;;;;;;-0.33;97.45;100725.69;5072887;28;19920;-71
2023/12/04 08:32:40;;;;;;;;;;;;;;;-0.42;97.60;100724.56;5072470;28;19920;-71
2023/12/04 08:35:06;;;;;;;;;;;;;;;-0.26;96.63;100728.50;5085108;28;20004;-71
2023/12/04 08:37:31;;;;;;;;;;;;;;;-0.25;96.12;100719.06;5055872;28;19935;-71
2023/12/04 08:39:56;;;;;;;;;;;;;;;-0.25;95.59;100721.66;5037396;28;19916;-70
2023/12/04 08:42:22;;;;;;;;;;;;;;;-0.20;94.99;100723.53;5072283;28;19931;-71
2023/12/04 08:44:47;;;;;;;;;;;;;;;-0.26;96.36;100713.06;5072341;28;19969;-72
2023/12/04 08:47:12;;;;;;;;;;;;;;;-0.25;95.09;100704.47;5078071;28;19990;-71
2023/12/04 08:49:40;;;;;;;;;;;;;;;-0.26;95.15;100707.00;5035972;28;19912;-72
2023/12/04 08:52:05;;;;;;;;;;;;;;;-0.35;95.64;100698.16;5053346;28;20054;-72
2023/12/04 08:54:31;;;;;;;;;;;;;;;-0.09;93.79;100694.63;5089182;28;20002;-72
2023/12/04 08:56:56;;;;;;;;;;;;;;;-0.12;93.39;100691.97;5070702;28;20374;-72
2023/12/04 08:59:21;;;;;;;;;;;;;;;-0.18;92.31;100692.66;5055581;28;19967;-72
2023/12/04 09:01:47;;;;;;;;;;;;;;;-0.16;92.92;100685.00;5054974;28;19932;-72
2023/12/04 09:04:12;;;;;;;;;;;;;;;-0.16;92.95;100688.41;5038984;28;19921;-72
2023/12/04 09:06:38;;;;;;;;;;;;;;;-0.24;93.48;100690.78;5038412;28;19921;-72
2023/12/04 09:09:03;;;;;;;;;;;;;;;-0.20;92.75;100681.47;5055316;28;20003;-72
2023/12/04 09:11:29;;;;;;;;;;;;;;;-0.13;91.84;100673.09;5054854;28;19939;-72
2023/12/04 09:13:54;;;;;;;;;;;;;;;-0.24;91.85;100677.03;5055279;28;19995;-72
2023/12/04 09:16:19;;;;;;;;;;;;;;;-0.27;92.41;100670.09;5071846;28;19912;-72
2023/12/04 09:18:45;;;;;;;;;;;;;;;-0.09;91.30;100674.91;5040816;28;19925;-72
2023/12/04 09:21:11;;;;;;;;;;;;;;;-0.13;91.30;100678.25;5072156;28;19966;-72
2023/12/04 09:23:37;;;;;;;;;;;;;;;-0.07;91.29;100680.09;5071599;28;19960;-72
2023/12/04 09:26:02;;;;;;;;;;;;;;;-0.01;90.82;100672.56;5071244;28;19917;-72
2023/12/04 09:28:27;;;;;;;;;;;;;;;-0.08;90.44;100674.06;5070370;28;19920;-72
2023/12/04 09:30:53;;;;;;;;;;;;;;;-0.04;90.45;100670.75;5054752;28;19958;-72
2023/12/04 09:33:18;;;;;;;;;;;;;;;-0.10;90.86;100672.28;5038409;28;19917;-72
2023/12/04 09:35:43;;;;;;;;;;;;;;;0.01;89.25;100668.31;5054576;28;19916;-72
2023/12/04 09:38:09;;;;;;;;;;;;;;;-0.07;90.61;100668.09;5063458;28;20366;-72
2023/12/04 09:40:34;;;;;;;;;;;;;;;0.09;90.06;100679.72;5038545;28;19983;-72
2023/12/04 09:43:01;;;;;;;;;;;;;;;-0.01;90.53;100670.84;5037639;28;19932;-72
2023/12/04 09:45:28;;;;;;;;;;;;;;;-0.02;91.09;100665.66;5053814;28;20398;-72
2023/12/04 09:47:55;;;;;;;;;;;;;;;0.04;90.29;100659.81;5054001;28;19916;-72
2023/12/04 09:50:22;;;;;;;;;;;;;;;-0.04;91.19;100668.19;5048409;28;20422;-72
2023/12/04 09:52:51;;;;;;;;;;;;;;;-0.06;91.90;100662.13;5053849;28;19917;-72
2023/12/04 09:55:16;;;;;;;;;;;;;;;0.03;90.84;100664.09;5050513;28;19921;-72
2023/12/04 09:57:43;;;;;;;;;;;;;;;-0.03;91.07;100664.78;5039634;28;20345;-72
2023/12/04 10:00:09;;;;;;;;;;;;;;;0.09;91.21;100665.97;5053571;28;19917;-72
2023/12/04 10:02:36;;;;;;;;;;;;;;;-0.02;90.78;100656.22;5044133;28;20382;-72
2023/12/04 10:05:04;;;;;;;;;;;;;;;0.01;92.02;100659.72;5047931;28;19920;-72
2023/12/04 10:07:30;;;;;;;;;;;;;;;0.12;91.46;100654.03;5037512;28;19920;-72
2023/12/04 10:09:55;;;;;;;;;;;;;;;0.16;91.01;100661.00;5036560;28;19920;-72
2023/12/04 10:12:21;;;;;;;;;;;;;;;0.12;90.74;100654.03;5046144;28;19928;-72
2023/12/04 10:15:02;;;;;;;;;;;;;;;0.30;89.14;100652.78;5067030;28;20061;-72
2023/12/04 10:17:32;;;;;;;;;;;;;;;0.34;88.79;100640.03;5049136;28;19963;-71
2023/12/04 10:20:11;;;;;;;;;;;;;;;0.30;88.50;100633.06;5053760;28;19912;-71
2023/12/04 10:22:38;;;;;;;;;;;;;;;0.07;90.63;100632.44;5043473;28;19917;-71
2023/12/04 10:25:15;;;;;;;;;;;;;;;0.04;90.90;100631.47;5064076;28;19916;-71
2023/12/04 10:27:43;;;;;;;;;;;;;;;0.11;90.98;100630.78;5052380;28;20039;-71
2023/12/04 10:30:09;;;;;;;;;;;;;;;0.20;90.22;100630.16;5071561;28;20003;-72
2023/12/04 10:32:41;;;;;;;;;;;;;;;0.23;90.21;100619.94;5033065;28;20032;-72
2023/12/04 10:35:09;;;;;;;;;;;;;;;0.34;89.96;100629.72;5063124;28;19921;-72
2023/12/04 10:37:41;;;;;;;;;;;;;;;0.29;89.21;100620.13;5053137;28;19966;-72
2023/12/04 10:40:10;;;;;;;;;;;;;;;0.22;90.09;100608.78;5034149;28;20289;-72
2023/12/04 10:42:35;;;;;;;;;;;;;;;0.36;90.00;100603.09;5053420;28;20354;-72
2023/12/04 10:45:06;;;;;;;;;;;;;;;0.45;88.79;100593.91;5097333;23;20014;-72
2023/12/04 10:52:40;;;;;;;;;;;;;;;0.43;90.67;100592.09;5158821;22;20312;-71
2023/12/04 11:57:34;;;;;;;;;;;;;;;0.94;87.58;100488.44;1486291;26;19928;-73
2023/12/04 12:00:11;;;;;;;;;;;;;;;0.90;88.93;100484.03;5047547;28;19932;-73
2023/12/04 12:02:38;;;;;;;;;;;;;;;0.79;88.68;100478.66;5038529;28;19924;-73
2023/12/04 12:05:04;;;;;;;;;;;;;;;0.84;88.70;100469.31;5036444;28;19923;-73
2023/12/04 12:07:30;;;;;;;;;;;;;;;0.79;89.68;100458.03;5016663;28;19971;-73
2023/12/04 12:09:55;;;;;;;;;;;;;;;0.91;89.05;100462.56;5034252;28;19916;-73
2023/12/04 12:12:21;;;;;;;;;;;;;;;0.78;89.89;100453.69;5049321;28;19918;-73
2023/12/04 12:14:46;;;;;;;;;;;;;;;0.75;89.71;100452.75;5036424;28;20344;-73
2023/12/04 12:17:13;;;;;;;;;;;;;;;0.83;89.57;100453.78;5018979;28;19929;-73
2023/12/04 12:19:39;;;;;;;;;;;;;;;0.72;90.00;100438.09;5036258;28;20133;-73
2023/12/04 12:22:05;;;;;;;;;;;;;;;0.66;90.31;100431.09;5035781;28;19921;-73
2023/12/04 12:24:31;;;;;;;;;;;;;;;0.66;91.38;100432.78;5035996;28;19927;-73
2023/12/04 12:26:56;;;;;;;;;;;;;;;0.48;92.01;100423.81;5035421;28;19982;-73
2023/12/04 12:29:22;;;;;;;;;;;;;;;0.51;92.50;100416.13;5052555;28;20263;-73
2023/12/04 12:31:49;;;;;;;;;;;;;;;0.51;93.02;100405.81;5060370;28;19959;-73
2023/12/04 12:34:15;;;;;;;;;;;;;;;0.48;93.49;100398.03;5072144;28;19912;-73
2023/12/04 12:36:41;;;;;;;;;;;;;;;0.45;93.65;100397.09;5035186;28;19924;-73
2023/12/04 12:39:08;;;;;;;;;;;;;;;0.50;93.10;100387.75;5035659;28;20405;-73
2023/12/04 12:41:34;;;;;;;;;;;;;;;0.44;93.77;100377.31;5034885;28;19927;-73
2023/12/04 12:44:00;;;;;;;;;;;;;;;0.46;93.94;100378.19;5035837;28;19917;-72
2023/12/04 12:46:26;;;;;;;;;;;;;;;0.54;93.31;100383.53;5035437;28;19917;-73
2023/12/04 12:48:51;;;;;;;;;;;;;;;0.66;92.75;100383.78;5035884;28;20465;-72
2023/12/04 12:51:17;;;;;;;;;;;;;;;0.60;93.03;100387.09;5035339;28;20424;-73
2023/12/04 12:53:46;;;;;;;;;;;;;;;0.73;91.67;100390.81;5035335;28;19956;-72
2023/12/04 12:56:11;;;;;;;;;;;;;;;0.68;92.26;100388.16;5018416;28;19931;-73
2023/12/04 12:58:37;;;;;;;;;;;;;;;0.78;92.36;100389.22;5031687;28;19925;-73
2023/12/04 13:01:02;;;;;;;;;;;;;;;0.81;92.26;100391.00;5048584;28;20030;-73
2023/12/04 13:03:31;;;;;;;;;;;;;;;0.89;91.25;100380.81;5032471;28;19921;-73
2023/12/04 13:05:57;;;;;;;;;;;;;;;0.71;93.17;100371.88;5031595;28;19971;-73
2023/12/04 13:08:22;;;;;;;;;;;;;;;0.69;93.49;100364.09;5031769;28;19929;-72
2023/12/04 13:10:48;;;;;;;;;;;;;;;0.66;94.32;100360.59;5031562;28;19917;-73
2023/12/04 13:13:14;;;;;;;;;;;;;;;0.80;93.55;100366.03;5031464;28;19944;-73
2023/12/04 13:15:45;;;;;;;;;;;;;;;0.78;94.46;100362.56;5026179;28;19928;-73
2023/12/04 13:18:11;;;;;;;;;;;;;;;0.82;94.09;100354.03;5028216;28;20319;-73
2023/12/04 13:20:36;;;;;;;;;;;;;;;0.66;95.46;100343.41;5028537;28;19920;-73
2023/12/04 13:23:04;;;;;;;;;;;;;;;0.67;95.22;100350.28;5040113;28;19976;-73
2023/12/04 13:25:30;;;;;;;;;;;;;;;0.71;95.02;100348.66;5014697;28;19921;-74
2023/12/04 13:27:55;;;;;;;;;;;;;;;0.55;96.46;100344.00;5032485;28;19921;-73
2023/12/04 13:30:21;;;;;;;;;;;;;;;0.54;96.69;100337.13;5014702;28;20340;-73
2023/12/04 13:32:50;;;;;;;;;;;;;;;0.55;96.74;100332.00;5015271;28;19929;-73
2023/12/04 13:35:15;;;;;;;;;;;;;;;0.53;97.64;100331.09;5031666;28;19982;-74
2023/12/04 13:37:41;;;;;;;;;;;;;;;0.61;97.01;100329.53;5031217;28;20004;-73
2023/12/04 13:40:08;;;;;;;;;;;;;;;0.67;97.49;100321.06;5027908;28;19914;-72
2023/12/04 13:45:20;;;;;;;;;;;;;;;0.70;97.60;100310.81;5023620;28;20449;-73
2023/12/04 13:47:46;;;;;;;;;;;;;;;0.61;98.82;100308.91;5027670;28;20341;-73
2023/12/04 13:50:11;;;;;;;;;;;;;;;0.55;99.82;100315.66;5031120;28;20027;-74
2023/12/04 13:52:38;;;;;;;;;;;;;;;0.51;99.62;100305.28;5014470;28;19982;-74
2023/12/04 13:55:14;;;;;;;;;;;;;;;0.42;100.00;100302.53;5030704;28;19921;-73
2023/12/04 13:58:37;;;;;;;;;;;;;;;0.33;100.00;100303.19;5035393;28;19977;-74
2023/12/04 14:00:25;;;;;;;;;;;;;;;0.31;100.00;100289.41;5028903;28;19917;-74
2023/12/04 14:03:00;;;;;;;;;;;;;;;0.26;100.00;100279.81;5032416;28;20302;-74
2023/12/04 14:05:25;;;;;;;;;;;;;;;0.29;100.00;100275.63;5031172;28;19920;-74
2023/12/04 14:07:51;;;;;;;;;;;;;;;0.34;100.00;100279.19;5029427;28;19921;-73
2023/12/04 14:10:17;;;;;;;;;;;;;;;0.32;100.00;100269.66;5030296;28;19944;-74
2023/12/04 14:12:42;;;;;;;;;;;;;;;0.34;100.00;100266.28;5030432;28;19917;-73
2023/12/04 14:15:08;;;;;;;;;;;;;;;0.26;100.00;100257.53;5014152;28;19955;-73
2023/12/04 14:17:33;;;;;;;;;;;;;;;0.32;100.00;100259.34;5047113;28;19975;-73
2023/12/04 14:19:59;;;;;;;;;;;;;;;0.29;100.00;100257.56;5030622;28;19921;-74
2023/12/04 14:22:25;;;;;;;;;;;;;;;0.25;100.00;100250.63;5030256;28;20318;-74
2023/12/04 14:24:51;;;;;;;;;;;;;;;0.23;100.00;100248.84;5030897;28;19931;-73
2023/12/04 14:27:16;;;;;;;;;;;;;;;0.38;100.00;100245.72;5030386;28;19943;-72